sensor_id;sensor_type;location;lat;lon;timestamp;pressure;altitude;pressure_sealevel;temperature;humidity
67545;BME280;54380;47.770;11.150;2022-07-10T00:00:50;95327.56;;;19.97;49.39
67545;BME280;54380;47.770;11.150;2022-07-10T00:03:17;95326.47;;;19.98;49.29
67545;BME280;54380;47.770;11.150;2022-07-10T00:05:43;95322.13;;;20.02;49.60
67545;BME280;54380;47.770;11.150;2022-07-10T00:08:10;95328.53;;;20.01;49.56
67545;BME280;54380;47.770;11.150;2022-07-10T00:10:39;95333.63;;;20.02;49.21
67545;BME280;54380;47.770;11.150;2022-07-10T00:13:05;95340.28;;;20.05;49.22
67545;BME280;54380;47.770;11.150;2022-07-10T00:15:32;95360.13;;;20.04;49.66
67545;BME280;54380;47.770;11.150;2022-07-10T00:17:59;95375.69;;;20.02;50.73
67545;BME280;54380;47.770;11.150;2022-07-10T00:20:26;95372.09;;;19.92;51.56
67545;BME280;54380;47.770;11.150;2022-07-10T00:22:52;95386.69;;;19.86;51.69
67545;BME280;54380;47.770;11.150;2022-07-10T00:25:26;95394.72;;;19.72;51.70
67545;BME280;54380;47.770;11.150;2022-07-10T00:30:38;95393.06;;;19.58;52.32
67545;BME280;54380;47.770;11.150;2022-07-10T00:33:05;95385.13;;;19.52;52.27
67545;BME280;54380;47.770;11.150;2022-07-10T00:35:32;95384.63;;;19.50;52.35
67545;BME280;54380;47.770;11.150;2022-07-10T00:37:59;95387.88;;;19.47;52.29
67545;BME280;54380;47.770;11.150;2022-07-10T00:40:25;95397.53;;;19.48;52.30
67545;BME280;54380;47.770;11.150;2022-07-10T00:42:52;95389.50;;;19.48;52.11
67545;BME280;54380;47.770;11.150;2022-07-10T00:45:19;95382.75;;;19.51;51.94
67545;BME280;54380;47.770;11.150;2022-07-10T00:47:47;95386.72;;;19.53;51.67
67545;BME280;54380;47.770;11.150;2022-07-10T00:50:13;95387.22;;;19.56;51.79
67545;BME280;54380;47.770;11.150;2022-07-10T00:52:41;95371.66;;;19.58;51.91
67545;BME280;54380;47.770;11.150;2022-07-10T00:55:08;95373.91;;;19.50;52.20
67545;BME280;54380;47.770;11.150;2022-07-10T00:57:36;95380.38;;;19.49;51.91
67545;BME280;54380;47.770;11.150;2022-07-10T01:00:05;95385.72;;;19.49;52.05
67545;BME280;54380;47.770;11.150;2022-07-10T01:02:32;95383.84;;;19.50;51.94
67545;BME280;54380;47.770;11.150;2022-07-10T01:05:01;95381.16;;;19.50;51.84
67545;BME280;54380;47.770;11.150;2022-07-10T01:07:28;95377.69;;;19.49;52.12
67545;BME280;54380;47.770;11.150;2022-07-10T01:09:55;95368.56;;;19.50;52.06
67545;BME280;54380;47.770;11.150;2022-07-10T01:12:24;95367.78;;;19.50;52.06
67545;BME280;54380;47.770;11.150;2022-07-10T01:15:06;95367.25;;;19.48;52.00
67545;BME280;54380;47.770;11.150;2022-07-10T01:17:47;95359.22;;;19.48;52.06
67545;BME280;54380;47.770;11.150;2022-07-10T01:26:22;95365.94;;;19.32;52.13
67545;BME280;54380;47.770;11.150;2022-07-10T01:28:50;95371.59;;;19.30;52.21
67545;BME280;54380;47.770;11.150;2022-07-10T01:31:23;95369.00;;;19.25;52.23
67545;BME280;54380;47.770;11.150;2022-07-10T01:34:05;95368.88;;;19.16;52.60
67545;BME280;54380;47.770;11.150;2022-07-10T01:36:48;95370.03;;;19.10;52.78
67545;BME280;54380;47.770;11.150;2022-07-10T01:39:29;95365.56;;;19.05;52.70
67545;BME280;54380;47.770;11.150;2022-07-10T01:45:10;95362.88;;;19.05;52.74
67545;BME280;54380;47.770;11.150;2022-07-10T01:47:50;95358.84;;;19.08;52.77
67545;BME280;54380;47.770;11.150;2022-07-10T01:50:18;95361.22;;;19.10;52.54
67545;BME280;54380;47.770;11.150;2022-07-10T01:52:53;95358.25;;;19.11;52.71
67545;BME280;54380;47.770;11.150;2022-07-10T01:55:34;95352.09;;;19.11;52.58
67545;BME280;54380;47.770;11.150;2022-07-10T01:58:15;95356.38;;;19.12;52.66
67545;BME280;54380;47.770;11.150;2022-07-10T02:00:43;95352.59;;;19.13;52.55
67545;BME280;54380;47.770;11.150;2022-07-10T02:03:11;95364.09;;;19.13;52.54
67545;BME280;54380;47.770;11.150;2022-07-10T02:05:57;95366.78;;;19.13;52.26
67545;BME280;54380;47.770;11.150;2022-07-10T02:08:23;95364.09;;;19.13;52.47
67545;BME280;54380;47.770;11.150;2022-07-10T02:10:50;95355.56;;;19.11;52.41
67545;BME280;54380;47.770;11.150;2022-07-10T02:13:17;95355.00;;;19.14;52.46
67545;BME280;54380;47.770;11.150;2022-07-10T02:15:49;95357.97;;;19.13;52.42
67545;BME280;54380;47.770;11.150;2022-07-10T02:18:19;95361.22;;;19.10;52.81
67545;BME280;54380;47.770;11.150;2022-07-10T02:21:00;95360.50;;;19.04;52.42
67545;BME280;54380;47.770;11.150;2022-07-10T02:23:41;95364.25;;;19.03;53.07
67545;BME280;54380;47.770;11.150;2022-07-10T02:26:22;95363.28;;;18.99;52.79
67545;BME280;54380;47.770;11.150;2022-07-10T02:29:02;95366.22;;;18.97;52.95
67545;BME280;54380;47.770;11.150;2022-07-10T02:46:23;95348.03;;;18.80;54.73
67545;BME280;54380;47.770;11.150;2022-07-10T02:49:04;95337.28;;;18.61;56.04
67545;BME280;54380;47.770;11.150;2022-07-10T02:51:31;95327.19;;;18.39;57.14
67545;BME280;54380;47.770;11.150;2022-07-10T02:54:12;95336.63;;;18.13;57.58
67545;BME280;54380;47.770;11.150;2022-07-10T02:56:39;95338.13;;;18.00;57.10
67545;BME280;54380;47.770;11.150;2022-07-10T02:59:05;95345.59;;;17.98;57.22
67545;BME280;54380;47.770;11.150;2022-07-10T03:07:38;95337.47;;;18.08;56.72
67545;BME280;54380;47.770;11.150;2022-07-10T03:10:06;95333.16;;;18.12;56.34
67545;BME280;54380;47.770;11.150;2022-07-10T03:12:34;95326.16;;;18.16;56.55
67545;BME280;54380;47.770;11.150;2022-07-10T03:15:01;95338.97;;;18.19;56.25
67545;BME280;54380;47.770;11.150;2022-07-10T03:17:28;95333.31;;;18.21;56.14
67545;BME280;54380;47.770;11.150;2022-07-10T03:19:54;95331.66;;;18.25;56.01
67545;BME280;54380;47.770;11.150;2022-07-10T03:22:22;95335.66;;;18.28;56.20
67545;BME280;54380;47.770;11.150;2022-07-10T03:24:50;95336.44;;;18.28;55.86
67545;BME280;54380;47.770;11.150;2022-07-10T03:27:17;95328.41;;;18.28;56.06
67545;BME280;54380;47.770;11.150;2022-07-10T03:29:44;95335.13;;;18.26;56.02
67545;BME280;54380;47.770;11.150;2022-07-10T03:32:10;95335.34;;;18.29;55.63
67545;BME280;54380;47.770;11.150;2022-07-10T03:34:37;95328.63;;;18.32;55.81
67545;BME280;54380;47.770;11.150;2022-07-10T03:37:04;95336.38;;;18.33;55.50
67545;BME280;54380;47.770;11.150;2022-07-10T03:39:31;95335.78;;;18.36;55.65
67545;BME280;54380;47.770;11.150;2022-07-10T03:41:59;95337.16;;;18.34;55.46
67545;BME280;54380;47.770;11.150;2022-07-10T03:44:26;95335.00;;;18.36;55.38
67545;BME280;54380;47.770;11.150;2022-07-10T03:46:53;95336.31;;;18.38;55.32
67545;BME280;54380;47.770;11.150;2022-07-10T03:49:19;95336.50;;;18.42;55.16
67545;BME280;54380;47.770;11.150;2022-07-10T03:51:46;95333.25;;;18.45;55.22
67545;BME280;54380;47.770;11.150;2022-07-10T03:54:13;95330.59;;;18.45;55.20
67545;BME280;54380;47.770;11.150;2022-07-10T03:56:39;95332.19;;;18.46;55.12
67545;BME280;54380;47.770;11.150;2022-07-10T03:59:26;95323.59;;;18.49;55.05
67545;BME280;54380;47.770;11.150;2022-07-10T04:01:53;95317.16;;;18.50;55.07
67545;BME280;54380;47.770;11.150;2022-07-10T04:04:20;95321.13;;;18.53;55.08
67545;BME280;54380;47.770;11.150;2022-07-10T04:06:47;95320.25;;;18.57;55.06
67545;BME280;54380;47.770;11.150;2022-07-10T04:09:14;95322.66;;;18.59;55.07
67545;BME280;54380;47.770;11.150;2022-07-10T04:11:40;95323.44;;;18.59;54.79
67545;BME280;54380;47.770;11.150;2022-07-10T04:14:07;95326.13;;;18.59;54.88
67545;BME280;54380;47.770;11.150;2022-07-10T04:16:35;95320.78;;;18.59;55.32
67545;BME280;54380;47.770;11.150;2022-07-10T04:19:02;95324.81;;;18.57;55.27
67545;BME280;54380;47.770;11.150;2022-07-10T04:21:28;95310.94;;;18.55;55.25
67545;BME280;54380;47.770;11.150;2022-07-10T04:23:55;95318.44;;;18.53;55.00
67545;BME280;54380;47.770;11.150;2022-07-10T04:26:22;95320.84;;;18.54;55.19
67545;BME280;54380;47.770;11.150;2022-07-10T04:28:48;95308.53;;;18.53;55.29
67545;BME280;54380;47.770;11.150;2022-07-10T04:31:15;95306.38;;;18.55;55.04
67545;BME280;54380;47.770;11.150;2022-07-10T04:33:44;95308.00;;;18.56;55.19
67545;BME280;54380;47.770;11.150;2022-07-10T04:36:12;95311.38;;;18.62;55.20
67545;BME280;54380;47.770;11.150;2022-07-10T04:38:39;95306.03;;;18.62;55.11
67545;BME280;54380;47.770;11.150;2022-07-10T04:41:06;95312.97;;;18.63;55.21
67545;BME280;54380;47.770;11.150;2022-07-10T04:43:33;95304.34;;;18.66;55.04
67545;BME280;54380;47.770;11.150;2022-07-10T04:46:00;95302.38;;;18.72;55.03
67545;BME280;54380;47.770;11.150;2022-07-10T04:48:27;95308.00;;;18.75;55.37
67545;BME280;54380;47.770;11.150;2022-07-10T04:50:55;95305.31;;;18.75;55.40
67545;BME280;54380;47.770;11.150;2022-07-10T04:53:22;95308.00;;;18.75;55.61
67545;BME280;54380;47.770;11.150;2022-07-10T04:55:49;95304.78;;;18.73;55.86
67545;BME280;54380;47.770;11.150;2022-07-10T04:58:15;95308.56;;;18.72;56.05
67545;BME280;54380;47.770;11.150;2022-07-10T05:00:42;95306.94;;;18.71;55.90
67545;BME280;54380;47.770;11.150;2022-07-10T05:03:08;95304.59;;;18.70;56.04
67545;BME280;54380;47.770;11.150;2022-07-10T05:05:37;95310.72;;;18.70;56.36
67545;BME280;54380;47.770;11.150;2022-07-10T05:08:05;95306.75;;;18.68;56.23
67545;BME280;54380;47.770;11.150;2022-07-10T05:10:32;95310.78;;;18.65;56.75
67545;BME280;54380;47.770;11.150;2022-07-10T05:13:00;95317.00;;;18.60;56.96
67545;BME280;54380;47.770;11.150;2022-07-10T05:15:36;95309.06;;;18.55;57.04
67545;BME280;54380;47.770;11.150;2022-07-10T05:18:06;95305.88;;;18.53;56.78
67545;BME280;54380;47.770;11.150;2022-07-10T05:20:34;95308.53;;;18.53;56.73
67545;BME280;54380;47.770;11.150;2022-07-10T05:23:02;95310.94;;;18.55;56.52
67545;BME280;54380;47.770;11.150;2022-07-10T05:25:30;95312.44;;;18.61;56.41
67545;BME280;54380;47.770;11.150;2022-07-10T05:27:58;95314.47;;;18.69;56.39
67545;BME280;54380;47.770;11.150;2022-07-10T05:30:25;95318.69;;;18.75;56.37
67545;BME280;54380;47.770;11.150;2022-07-10T05:32:51;95330.97;;;18.76;56.14
67545;BME280;54380;47.770;11.150;2022-07-10T05:35:18;95331.47;;;18.78;56.07
67545;BME280;54380;47.770;11.150;2022-07-10T05:37:45;95332.00;;;18.80;55.89
67545;BME280;54380;47.770;11.150;2022-07-10T05:40:11;95335.66;;;18.84;55.90
67545;BME280;54380;47.770;11.150;2022-07-10T05:42:40;95339.63;;;18.87;56.16
67545;BME280;54380;47.770;11.150;2022-07-10T05:45:07;95339.13;;;18.85;56.52
67545;BME280;54380;47.770;11.150;2022-07-10T05:47:34;95336.75;;;18.83;56.78
67545;BME280;54380;47.770;11.150;2022-07-10T05:50:05;95341.66;;;18.76;57.47
67545;BME280;54380;47.770;11.150;2022-07-10T05:52:32;95339.53;;;18.73;57.15
67545;BME280;54380;47.770;11.150;2022-07-10T05:55:06;95341.66;;;18.76;57.31
67545;BME280;54380;47.770;11.150;2022-07-10T05:57:34;95344.09;;;18.73;57.58
67545;BME280;54380;47.770;11.150;2022-07-10T06:02:58;95334.63;;;18.61;58.03
67545;BME280;54380;47.770;11.150;2022-07-10T06:05:25;95335.22;;;18.58;58.20
67545;BME280;54380;47.770;11.150;2022-07-10T06:07:55;95339.56;;;18.54;58.10
67545;BME280;54380;47.770;11.150;2022-07-10T06:10:22;95344.13;;;18.54;58.07
67545;BME280;54380;47.770;11.150;2022-07-10T06:12:49;95337.94;;;18.53;57.74
67545;BME280;54380;47.770;11.150;2022-07-10T06:15:16;95337.94;;;18.53;57.85
67545;BME280;54380;47.770;11.150;2022-07-10T06:17:44;95343.81;;;18.55;57.82
67545;BME280;54380;47.770;11.150;2022-07-10T06:20:22;95356.66;;;18.53;57.93
67545;BME280;54380;47.770;11.150;2022-07-10T06:22:49;95353.00;;;18.49;58.01
67545;BME280;54380;47.770;11.150;2022-07-10T06:25:19;95348.22;;;18.46;57.86
67545;BME280;54380;47.770;11.150;2022-07-10T06:27:48;95351.44;;;18.43;57.86
67545;BME280;54380;47.770;11.150;2022-07-10T06:30:28;95349.88;;;18.42;58.06
67545;BME280;54380;47.770;11.150;2022-07-10T06:32:59;95354.44;;;18.41;58.15
67545;BME280;54380;47.770;11.150;2022-07-10T06:35:44;95352.28;;;18.43;57.97
67545;BME280;54380;47.770;11.150;2022-07-10T06:38:12;95348.00;;;18.42;58.10
67545;BME280;54380;47.770;11.150;2022-07-10T06:40:38;95363.44;;;18.46;58.12
67545;BME280;54380;47.770;11.150;2022-07-10T06:43:05;95353.84;;;18.45;57.99
67545;BME280;54380;47.770;11.150;2022-07-10T06:45:40;95361.09;;;18.44;58.14
67545;BME280;54380;47.770;11.150;2022-07-10T06:48:16;95365.63;;;18.43;57.85
67545;BME280;54380;47.770;11.150;2022-07-10T06:50:45;95362.66;;;18.45;58.03
67545;BME280;54380;47.770;11.150;2022-07-10T06:53:12;95364.81;;;18.43;57.92
67545;BME280;54380;47.770;11.150;2022-07-10T06:55:38;95365.41;;;18.40;58.08
67545;BME280;54380;47.770;11.150;2022-07-10T06:58:05;95371.03;;;18.38;57.82
67545;BME280;54380;47.770;11.150;2022-07-10T07:00:32;95368.13;;;18.35;58.25
67545;BME280;54380;47.770;11.150;2022-07-10T07:02:59;95366.03;;;18.32;58.27
67545;BME280;54380;47.770;11.150;2022-07-10T07:05:25;95361.78;;;18.31;58.26
67545;BME280;54380;47.770;11.150;2022-07-10T07:07:53;95368.19;;;18.30;58.27
67545;BME280;54380;47.770;11.150;2022-07-10T07:10:20;95357.22;;;18.31;58.37
67545;BME280;54380;47.770;11.150;2022-07-10T07:12:47;95365.25;;;18.31;58.26
67545;BME280;54380;47.770;11.150;2022-07-10T07:15:14;95359.91;;;18.31;58.68
67545;BME280;54380;47.770;11.150;2022-07-10T07:17:43;95363.88;;;18.34;58.63
67545;BME280;54380;47.770;11.150;2022-07-10T07:20:25;95363.59;;;18.35;58.63
67545;BME280;54380;47.770;11.150;2022-07-10T07:23:12;95370.53;;;18.36;58.53
67545;BME280;54380;47.770;11.150;2022-07-10T07:25:39;95381.44;;;18.40;58.67
67545;BME280;54380;47.770;11.150;2022-07-10T07:28:08;95376.91;;;18.40;58.63
67545;BME280;54380;47.770;11.150;2022-07-10T07:30:35;95373.13;;;18.41;58.43
67545;BME280;54380;47.770;11.150;2022-07-10T07:33:02;95372.84;;;18.43;58.25
67545;BME280;54380;47.770;11.150;2022-07-10T07:35:29;95371.97;;;18.48;58.35
67545;BME280;54380;47.770;11.150;2022-07-10T07:37:56;95373.28;;;18.50;58.39
67545;BME280;54380;47.770;11.150;2022-07-10T07:40:24;95387.22;;;18.47;58.14
67545;BME280;54380;47.770;11.150;2022-07-10T07:42:51;95390.47;;;18.44;58.11
67545;BME280;54380;47.770;11.150;2022-07-10T07:45:17;95384.09;;;18.40;58.21
67545;BME280;54380;47.770;11.150;2022-07-10T07:47:45;95389.97;;;18.42;58.19
67545;BME280;54380;47.770;11.150;2022-07-10T07:50:12;95381.09;;;18.47;58.05
67545;BME280;54380;47.770;11.150;2022-07-10T07:52:39;95376.69;;;18.56;58.17
67545;BME280;54380;47.770;11.150;2022-07-10T07:55:06;95379.53;;;18.64;58.02
67545;BME280;54380;47.770;11.150;2022-07-10T07:57:34;95371.38;;;18.75;58.07
67545;BME280;54380;47.770;11.150;2022-07-10T08:00:01;95378.81;;;18.78;57.79
67545;BME280;54380;47.770;11.150;2022-07-10T08:02:37;95369.91;;;18.82;57.64
67545;BME280;54380;47.770;11.150;2022-07-10T08:05:04;95373.59;;;18.86;57.60
67545;BME280;54380;47.770;11.150;2022-07-10T08:07:32;95368.19;;;18.92;57.61
67545;BME280;54380;47.770;11.150;2022-07-10T08:09:59;95378.50;;;18.98;57.55
67545;BME280;54380;47.770;11.150;2022-07-10T08:12:26;95371.78;;;19.01;57.32
67545;BME280;54380;47.770;11.150;2022-07-10T08:14:54;95367.72;;;19.03;57.19
67545;BME280;54380;47.770;11.150;2022-07-10T08:17:20;95369.84;;;19.06;57.36
67545;BME280;54380;47.770;11.150;2022-07-10T08:19:48;95370.63;;;19.07;57.16
67545;BME280;54380;47.770;11.150;2022-07-10T08:22:14;95376.13;;;18.97;56.90
67545;BME280;54380;47.770;11.150;2022-07-10T08:24:41;95380.19;;;18.94;56.92
67545;BME280;54380;47.770;11.150;2022-07-10T08:27:07;95376.41;;;18.95;56.86
67545;BME280;54380;47.770;11.150;2022-07-10T08:29:34;95376.94;;;18.97;56.83
67545;BME280;54380;47.770;11.150;2022-07-10T08:32:04;95386.53;;;18.98;56.71
67545;BME280;54380;47.770;11.150;2022-07-10T08:34:31;95384.66;;;18.99;56.69
67545;BME280;54380;47.770;11.150;2022-07-10T08:36:59;95383.28;;;19.01;56.60
67545;BME280;54380;47.770;11.150;2022-07-10T08:39:27;95387.63;;;18.97;56.96
67545;BME280;54380;47.770;11.150;2022-07-10T08:41:53;95391.16;;;18.93;56.84
67545;BME280;54380;47.770;11.150;2022-07-10T08:44:20;95394.41;;;18.90;56.70
67545;BME280;54380;47.770;11.150;2022-07-10T08:46:48;95384.59;;;18.85;56.85
67545;BME280;54380;47.770;11.150;2022-07-10T08:49:16;95398.34;;;18.78;56.74
67545;BME280;54380;47.770;11.150;2022-07-10T08:51:45;95387.34;;;18.80;56.85
67545;BME280;54380;47.770;11.150;2022-07-10T08:54:13;95383.53;;;18.86;56.71
67545;BME280;54380;47.770;11.150;2022-07-10T08:56:47;95380.47;;;18.93;56.38
67545;BME280;54380;47.770;11.150;2022-07-10T08:59:14;95376.41;;;18.95;56.46
67545;BME280;54380;47.770;11.150;2022-07-10T09:01:42;95379.81;;;19.01;56.41
67545;BME280;54380;47.770;11.150;2022-07-10T09:04:16;95374.00;;;19.13;56.57
67545;BME280;54380;47.770;11.150;2022-07-10T09:06:45;95376.84;;;19.35;56.63
67545;BME280;54380;47.770;11.150;2022-07-10T09:09:15;95376.50;;;19.56;56.35
67545;BME280;54380;47.770;11.150;2022-07-10T09:11:42;95376.69;;;19.78;55.62
67545;BME280;54380;47.770;11.150;2022-07-10T09:14:09;95376.41;;;19.93;55.56
67545;BME280;54380;47.770;11.150;2022-07-10T09:16:39;95372.09;;;20.06;54.93
67545;BME280;54380;47.770;11.150;2022-07-10T09:19:18;95370.25;;;20.07;53.77
67545;BME280;54380;47.770;11.150;2022-07-10T09:21:46;95378.06;;;20.03;53.91
67545;BME280;54380;47.770;11.150;2022-07-10T09:24:13;95376.22;;;20.04;53.88
67545;BME280;54380;47.770;11.150;2022-07-10T09:26:40;95379.44;;;20.01;53.60
67545;BME280;54380;47.770;11.150;2022-07-10T09:29:07;95373.41;;;19.95;53.42
67545;BME280;54380;47.770;11.150;2022-07-10T09:31:49;95382.13;;;19.87;53.51
67545;BME280;54380;47.770;11.150;2022-07-10T09:39:52;95370.22;;;20.21;53.27
67545;BME280;54380;47.770;11.150;2022-07-10T09:42:29;95366.94;;;20.51;53.23
67545;BME280;54380;47.770;11.150;2022-07-10T09:45:12;95358.09;;;20.87;52.82
67545;BME280;54380;47.770;11.150;2022-07-10T09:47:40;95357.78;;;21.11;51.78
67545;BME280;54380;47.770;11.150;2022-07-10T09:50:08;95352.56;;;21.29;51.75
67545;BME280;54380;47.770;11.150;2022-07-10T09:52:45;95355.72;;;21.31;50.71
67545;BME280;54380;47.770;11.150;2022-07-10T09:55:14;95349.94;;;21.15;50.19
67545;BME280;54380;47.770;11.150;2022-07-10T09:57:41;95342.06;;;21.18;49.83
67545;BME280;54380;47.770;11.150;2022-07-10T10:00:10;95347.06;;;21.34;49.96
67545;BME280;54380;47.770;11.150;2022-07-10T10:02:38;95346.72;;;21.49;50.00
67545;BME280;54380;47.770;11.150;2022-07-10T10:05:05;95351.53;;;21.69;49.68
67545;BME280;54380;47.770;11.150;2022-07-10T10:07:32;95345.13;;;21.88;49.25
67545;BME280;54380;47.770;11.150;2022-07-10T10:10:00;95350.66;;;21.83;48.07
67545;BME280;54380;47.770;11.150;2022-07-10T10:12:31;95347.72;;;21.62;48.10
67545;BME280;54380;47.770;11.150;2022-07-10T10:14:58;95357.75;;;21.47;48.82
67545;BME280;54380;47.770;11.150;2022-07-10T10:17:26;95350.94;;;21.41;48.74
67545;BME280;54380;47.770;11.150;2022-07-10T10:19:53;95348.97;;;21.33;48.75
67545;BME280;54380;47.770;11.150;2022-07-10T10:22:40;95343.22;;;21.48;49.41
67545;BME280;54380;47.770;11.150;2022-07-10T10:25:07;95341.28;;;21.72;48.96
67545;BME280;54380;47.770;11.150;2022-07-10T10:27:35;95340.78;;;21.69;48.51
67545;BME280;54380;47.770;11.150;2022-07-10T10:30:03;95335.38;;;21.61;48.06
67545;BME280;54380;47.770;11.150;2022-07-10T10:32:30;95331.91;;;21.60;48.44
67545;BME280;54380;47.770;11.150;2022-07-10T10:34:56;95332.31;;;21.85;48.83
67545;BME280;54380;47.770;11.150;2022-07-10T10:37:35;95329.28;;;22.18;48.29
67545;BME280;54380;47.770;11.150;2022-07-10T10:40:03;95323.63;;;22.45;47.67
67545;BME280;54380;47.770;11.150;2022-07-10T10:42:38;95331.59;;;22.68;47.82
67545;BME280;54380;47.770;11.150;2022-07-10T10:45:24;95316.38;;;22.89;47.60
67545;BME280;54380;47.770;11.150;2022-07-10T10:48:02;95316.84;;;23.17;47.14
67545;BME280;54380;47.770;11.150;2022-07-10T10:50:54;95310.59;;;23.43;45.68
67545;BME280;54380;47.770;11.150;2022-07-10T10:53:24;95311.25;;;23.40;45.20
67545;BME280;54380;47.770;11.150;2022-07-10T10:58:42;95310.78;;;23.47;44.31
67545;BME280;54380;47.770;11.150;2022-07-10T11:01:28;95299.16;;;23.55;44.34
67545;BME280;54380;47.770;11.150;2022-07-10T11:04:14;95301.34;;;23.70;43.84
67545;BME280;54380;47.770;11.150;2022-07-10T11:06:42;95293.00;;;23.54;43.67
67545;BME280;54380;47.770;11.150;2022-07-10T11:09:22;95296.69;;;23.41;44.24
67545;BME280;54380;47.770;11.150;2022-07-10T11:11:57;95304.63;;;23.29;43.92
67545;BME280;54380;47.770;11.150;2022-07-10T11:14:25;95304.81;;;23.06;43.65
67545;BME280;54380;47.770;11.150;2022-07-10T11:16:55;95306.25;;;22.86;44.14
67545;BME280;54380;47.770;11.150;2022-07-10T11:19:22;95316.22;;;22.68;43.99
67545;BME280;54380;47.770;11.150;2022-07-10T11:21:55;95311.16;;;22.49;44.31
67545;BME280;54380;47.770;11.150;2022-07-10T11:24:33;95313.66;;;22.37;44.36
67545;BME280;54380;47.770;11.150;2022-07-10T11:27:06;95315.22;;;22.21;44.67
67545;BME280;54380;47.770;11.150;2022-07-10T11:29:38;95311.53;;;22.08;44.82
67545;BME280;54380;47.770;11.150;2022-07-10T11:32:06;95323.34;;;21.98;45.28
67545;BME280;54380;47.770;11.150;2022-07-10T11:34:34;95310.06;;;21.93;45.68
67545;BME280;54380;47.770;11.150;2022-07-10T11:37:02;95315.56;;;21.88;45.54
67545;BME280;54380;47.770;11.150;2022-07-10T11:39:28;95319.38;;;21.87;45.87
67545;BME280;54380;47.770;11.150;2022-07-10T11:41:55;95316.53;;;21.92;45.63
67545;BME280;54380;47.770;11.150;2022-07-10T11:44:22;95310.72;;;21.99;46.08
67545;BME280;54380;47.770;11.150;2022-07-10T11:46:51;95312.34;;;22.17;45.73
67545;BME280;54380;47.770;11.150;2022-07-10T11:49:20;95312.53;;;22.21;45.69
67545;BME280;54380;47.770;11.150;2022-07-10T11:51:48;95308.28;;;22.37;46.08
67545;BME280;54380;47.770;11.150;2022-07-10T11:54:17;95302.44;;;22.52;46.05
67545;BME280;54380;47.770;11.150;2022-07-10T11:56:46;95299.75;;;22.87;45.94
67545;BME280;54380;47.770;11.150;2022-07-10T11:59:13;95304.69;;;23.03;45.12
67545;BME280;54380;47.770;11.150;2022-07-10T12:01:43;95299.94;;;22.91;43.92
67545;BME280;54380;47.770;11.150;2022-07-10T12:04:12;95317.66;;;22.66;43.94
67545;BME280;54380;47.770;11.150;2022-07-10T12:06:39;95315.56;;;22.45;44.07
67545;BME280;54380;47.770;11.150;2022-07-10T12:09:07;95309.84;;;22.29;44.13
67545;BME280;54380;47.770;11.150;2022-07-10T12:11:34;95313.28;;;22.12;44.16
67545;BME280;54380;47.770;11.150;2022-07-10T12:14:11;95315.28;;;21.98;44.51
67545;BME280;54380;47.770;11.150;2022-07-10T12:16:41;95317.16;;;21.89;44.59
67545;BME280;54380;47.770;11.150;2022-07-10T12:19:10;95312.41;;;21.86;44.88
67545;BME280;54380;47.770;11.150;2022-07-10T12:21:39;95313.44;;;22.07;45.23
67545;BME280;54380;47.770;11.150;2022-07-10T12:24:06;95312.56;;;22.38;45.03
67545;BME280;54380;47.770;11.150;2022-07-10T12:26:33;95310.38;;;22.75;45.08
67545;BME280;54380;47.770;11.150;2022-07-10T12:29:01;95305.31;;;23.08;44.78
67545;BME280;54380;47.770;11.150;2022-07-10T12:31:28;95308.13;;;23.29;44.78
67545;BME280;54380;47.770;11.150;2022-07-10T12:33:56;95309.34;;;23.40;43.75
67545;BME280;54380;47.770;11.150;2022-07-10T12:36:42;95294.09;;;23.53;43.30
67545;BME280;54380;47.770;11.150;2022-07-10T12:39:13;95299.75;;;23.69;42.18
67545;BME280;54380;47.770;11.150;2022-07-10T12:41:52;95297.78;;;23.40;41.22
67545;BME280;54380;47.770;11.150;2022-07-10T12:44:29;95298.56;;;23.40;42.22
67545;BME280;54380;47.770;11.150;2022-07-10T12:49:22;95293.09;;;23.66;40.48
67545;BME280;54380;47.770;11.150;2022-07-10T12:51:50;95297.78;;;23.49;40.78
67545;BME280;54380;47.770;11.150;2022-07-10T12:54:37;95301.94;;;23.29;41.79
67545;BME280;54380;47.770;11.150;2022-07-10T12:57:04;95305.91;;;23.22;42.00
67545;BME280;54380;47.770;11.150;2022-07-10T12:59:32;95304.94;;;23.36;42.37
67545;BME280;54380;47.770;11.150;2022-07-10T13:01:59;95309.44;;;23.61;42.42
67545;BME280;54380;47.770;11.150;2022-07-10T13:04:39;95304.81;;;23.79;41.75
67545;BME280;54380;47.770;11.150;2022-07-10T13:07:13;95304.91;;;23.92;41.03
67545;BME280;54380;47.770;11.150;2022-07-10T13:09:42;95301.88;;;23.93;40.61
67545;BME280;54380;47.770;11.150;2022-07-10T13:12:10;95303.72;;;23.72;40.63
67545;BME280;54380;47.770;11.150;2022-07-10T13:14:37;95302.19;;;23.53;40.95
67545;BME280;54380;47.770;11.150;2022-07-10T13:17:04;95302.69;;;23.38;41.10
67545;BME280;54380;47.770;11.150;2022-07-10T13:19:30;95303.19;;;23.31;41.27
67545;BME280;54380;47.770;11.150;2022-07-10T13:21:57;95297.56;;;23.54;41.40
67545;BME280;54380;47.770;11.150;2022-07-10T13:24:26;95286.59;;;23.76;41.50
67545;BME280;54380;47.770;11.150;2022-07-10T13:26:53;95284.72;;;23.98;41.16
67545;BME280;54380;47.770;11.150;2022-07-10T13:29:24;95278.31;;;24.11;39.76
67545;BME280;54380;47.770;11.150;2022-07-10T13:31:52;95284.91;;;23.93;39.69
67545;BME280;54380;47.770;11.150;2022-07-10T13:34:18;95287.69;;;23.66;39.47
67545;BME280;54380;47.770;11.150;2022-07-10T13:36:45;95284.47;;;23.43;39.42
67545;BME280;54380;47.770;11.150;2022-07-10T13:39:12;95291.66;;;23.22;39.45
67545;BME280;54380;47.770;11.150;2022-07-10T13:41:40;95291.84;;;23.08;39.66
67545;BME280;54380;47.770;11.150;2022-07-10T13:44:07;95296.13;;;23.00;40.43
67545;BME280;54380;47.770;11.150;2022-07-10T13:46:41;95297.88;;;22.96;40.40
67545;BME280;54380;47.770;11.150;2022-07-10T13:49:08;95291.69;;;23.05;41.05